Latest Coastal Weather Observations for Gladstone

IDQ60701

Issued at 3:05 am EST Sunday 26 October 2014 (issued every 10 minutes, with the page automatically refreshed every 10 minutes)

About coastal observations | Map of coastal stations | Coastal observations for QLD | Marine services | Other Formats
Station Details ID: 039123 Name: GLADSTONE RADAR Lat: -23.86 Lon: 151.26 Height: 74.5 m
Data from the previous 72 hours. | See also: Recent months at Gladstone
Date/Time
EST
Temp

°C
Wind Pressure Rain
since 9am
mm
Weather Cloud Vis
km
Sea
Height
m
Swell
Dir
 
Speed
knots
Gust
knots
hPa Trend Height
m
Period
s
Dir
26/03:00am 19.8 NW 5 6 1016.9 - 0.0 - - - - - - -
26/02:30am 19.4 W 3 5 1016.9 - 0.0 - - - - - - -
26/02:00am 19.4 WSW 3 4 1017.1 - 0.0 - - - - - - -
26/01:30am 19.4 WSW 3 4 1017.2 - 0.0 - - - - - - -
26/01:00am 19.9 W 3 5 1017.4 - 0.0 - - - - - - -
26/12:30am 20.2 NW 5 7 1017.8 - 0.0 - - - - - - -
26/12:00am 20.7 NNW 5 7 1018.1 - 0.0 - - - - - - -
 
Date/Time
EST
Temp

°C
Wind Pressure Rain
since 9am
mm
Weather Cloud Vis
km
Sea
Height
m
Swell
Dir
 
Speed
knots
Gust
knots
hPa Trend Height
m
Period
s
Dir
25/11:30pm 20.7 N 5 8 1018.2 - 0.0 - - - - - - -
25/11:00pm 20.9 N 4 7 1018.7 - 0.0 - - - - - - -
25/10:30pm 20.8 N 5 7 1019.0 - 0.0 - - - - - - -
25/10:00pm 20.9 N 4 8 1019.1 - 0.0 - - - - - - -
25/09:30pm 21.1 N 4 8 1019.3 - 0.0 - - - - - - -
25/09:00pm 21.1 NNE 7 10 1019.2 - 0.0 - - - - - - -
25/08:30pm 21.1 NNE 6 10 1018.8 - 0.0 - - - - - - -
25/08:00pm 21.1 NNE 6 9 1018.7 - 0.0 - - - - - - -
25/07:30pm 21.3 NNE 6 10 1018.6 - 0.0 - - - - - - -
25/07:00pm 21.3 NNE 5 9 1018.4 - 0.0 - - - - - - -
25/06:30pm 21.6 NNE 6 11 1018.1 - 0.0 - - - - - - -
25/06:00pm 22.0 NNE 7 12 1017.9 - 0.0 - - - - - - -
25/05:30pm 22.5 NE 7 11 1017.4 - 0.0 - - - - - - -
25/05:00pm 22.9 NE 8 12 1017.1 - 0.0 - - - - - - -
25/04:30pm 23.7 NNE 8 15 1017.0 - 0.0 - - - - - - -
25/04:00pm 25.4 NE 7 13 1017.0 - 0.0 - - - - - - -
25/03:30pm 25.5 NE 8 12 1017.1 - 0.0 - - - - - - -
25/03:00pm 26.7 NE 8 13 1017.2 - 0.0 - - - - - - -
25/02:30pm 26.5 NE 9 15 1017.3 - 0.0 - - - - - - -
25/02:00pm 26.8 NE 9 14 1017.6 - 0.0 - - - - - - -
25/01:30pm 27.8 NE 8 14 1018.1 - 0.0 - - - - - - -
25/01:00pm 27.8 NE 9 14 1018.4 - 0.0 - - - - - - -
25/12:30pm 28.3 NE 9 13 1018.9 - 0.0 - - - - - - -
25/12:00pm 27.9 NE 9 13 1019.3 - 0.0 - - - - - - -
25/11:30am 27.7 NE 8 12 1019.9 - 0.0 - - - - - - -
25/11:00am 27.3 NE 8 12 1020.4 - 0.0 - - - - - - -
25/10:30am 27.2 ENE 8 11 1020.9 - 0.0 - - - - - - -
25/10:00am 27.5 NE 7 10 1021.4 - 0.0 - - - - - - -
25/09:30am 26.7 NE 7 11 1021.6 - 0.0 - - - - - - -
25/09:00am 26.4 NE 6 10 1021.7 - 0.0 - - - - - - -
25/08:30am 24.7 ENE 6 8 1021.7 - 0.0 - - - - - - -
25/08:00am 24.2 E 4 7 1021.5 - 0.0 - - - - - - -
25/07:30am 22.3 ENE 3 4 1021.4 - 0.0 - - - - - - -
25/07:00am 20.7 S 3 5 1021.1 - 0.0 - - - - - - -
25/06:30am 19.9 S 4 6 1020.8 - 0.0 - - - - - - -
25/06:00am 18.1 S 4 5 1020.2 - 0.0 - - - - - - -
25/05:30am 18.1 S 4 5 1019.8 - 0.0 - - - - - - -
25/05:00am 18.5 SSE 4 5 1019.5 - 0.0 - - - - - - -
25/04:30am 18.2 SSE 4 5 1019.4 - 0.0 - - - - - - -
25/04:00am 18.3 SSE 5 5 1019.4 - 0.0 - - - - - - -
25/03:30am 18.4 SSE 5 7 1019.4 - 0.0 - - - - - - -
25/03:00am 18.7 SSE 5 7 1019.4 - 0.0 - - - - - - -
25/02:30am 19.0 SSE 6 7 1019.5 - 0.0 - - - - - - -
25/02:00am 18.9 SSE 5 6 1019.7 - 0.0 - - - - - - -
25/01:30am 18.9 SSE 5 7 1020.1 - 0.0 - - - - - - -
25/01:00am 19.0 SSE 5 6 1020.3 - 0.0 - - - - - - -
25/12:30am 19.1 SSE 5 6 1020.6 - 0.0 - - - - - - -
25/12:00am 19.3 SE 5 6 1020.9 - 0.0 - - - - - - -
 
Date/Time
EST
Temp

°C
Wind Pressure Rain
since 9am
mm
Weather Cloud Vis
km
Sea
Height
m
Swell
Dir
 
Speed
knots
Gust
knots
hPa Trend Height
m
Period
s
Dir
24/11:30pm 19.5 SE 5 6 1021.2 - 0.0 - - - - - - -
24/11:00pm 19.6 SE 5 7 1021.5 - 0.0 - - - - - - -
24/10:30pm 20.1 ENE 7 11 1021.7 - 0.0 - - - - - - -
24/10:00pm 20.3 E 8 12 1021.6 - 0.0 - - - - - - -
24/09:30pm 20.6 ENE 10 12 1021.3 - 0.0 - - - - - - -
24/09:00pm 20.6 ENE 10 13 1021.3 - 0.0 - - - - - - -
24/08:30pm 20.6 ENE 10 15 1020.9 - 0.0 - - - - - - -
24/08:00pm 20.6 E 11 14 1020.6 - 0.0 - - - - - - -
24/07:30pm 20.7 E 11 14 1020.5 - 0.0 - - - - - - -
24/07:00pm 20.7 ENE 10 13 1020.3 - 0.0 - - - - - - -
24/06:30pm 20.9 E 11 13 1019.9 - 0.0 - - - - - - -
24/06:00pm 21.3 ENE 11 14 1019.6 - 0.0 - - - - - - -
24/05:30pm 21.7 ENE 11 15 1019.4 - 0.0 - - - - - - -
24/05:00pm 22.5 ENE 10 14 1019.3 - 0.0 - - - - - - -
24/04:30pm 23.2 ENE 9 15 1019.1 - 0.0 - - - - - - -
24/04:00pm 24.1 NE 10 15 1019.0 - 0.0 - - - - - - -
24/03:30pm 24.9 NE 10 15 1019.1 - 0.0 - - - - - - -
24/03:00pm 25.4 NE 11 16 1019.1 - 0.0 - - - - - - -
24/02:30pm 26.0 NE 11 16 1019.4 - 0.0 - - - - - - -
24/02:00pm 26.3 NE 11 16 1020.0 - 0.0 - - - - - - -
24/01:30pm 26.6 NE 11 17 1020.2 - 0.0 - - - - - - -
24/01:00pm 27.7 NE 9 14 1020.4 - 0.0 - - - - - - -
24/12:30pm 27.7 NE 9 13 1020.7 - 0.0 - - - - - - -
24/12:00pm 28.4 ENE 9 14 1020.8 - 0.0 - - - - - - -
24/11:30am 27.2 NE 10 14 1021.2 - 0.0 - - - - - - -
24/11:00am 27.3 ENE 9 14 1021.6 - 0.0 - - - - - - -
24/10:30am 26.9 NE 11 13 1021.5 - 0.0 - - - - - - -
24/10:00am 26.8 ENE 11 15 1021.6 - 0.0 - - - - - - -
24/09:30am 26.1 ENE 9 13 1021.8 - 0.0 - - - - - - -
24/09:00am 25.1 ENE 8 13 1021.8 - 0.0 - - - - - - -
24/08:30am 24.7 ENE 8 12 1021.5 - 0.0 - - - - - - -
24/08:00am 24.2 ENE 7 11 1021.4 - 0.0 - - - - - - -
24/07:30am 22.8 E 6 10 1021.4 - 0.0 - - - - - - -
24/07:00am 21.8 E 4 7 1021.1 - 0.0 - - - - - - -
24/06:30am 20.4 SE 4 7 1020.8 - 0.0 - - - - - - -
24/06:00am 18.6 SSE 6 9 1020.7 - 0.0 - - - - - - -
24/05:30am 18.4 SE 7 10 1020.3 - 0.0 - - - - - - -
24/05:00am 18.0 SSE 7 9 1020.1 - 0.0 - - - - - - -
24/04:30am 18.3 SSE 6 7 1019.8 - 0.0 - - - - - - -
24/04:00am 18.3 SSE 6 7 1019.4 - 0.0 - - - - - - -
24/03:30am 18.2 SSE 6 8 1019.3 - 0.0 - - - - - - -
24/03:00am 18.2 SE 7 9 1019.4 - 0.0 - - - - - - -
24/02:30am 18.4 SE 6 8 1019.5 - 0.0 - - - - - - -
24/02:00am 18.7 SE 6 8 1019.9 - 0.0 - - - - - - -
24/01:30am 18.8 SSE 6 7 1020.3 - 0.0 - - - - - - -
24/01:00am 19.0 SE 5 7 1020.5 - 0.0 - - - - - - -
24/12:30am 19.1 ESE 5 6 1021.0 - 0.0 - - - - - - -
24/12:00am 19.5 E 5 7 1021.1 - 0.0 - - - - - - -
 
Date/Time
EST
Temp

°C
Wind Pressure Rain
since 9am
mm
Weather Cloud Vis
km
Sea
Height
m
Swell
Dir
 
Speed
knots
Gust
knots
hPa Trend Height
m
Period
s
Dir
23/11:30pm 19.8 ENE 6 9 1021.1 - 0.0 - - - - - - -
23/11:00pm 19.7 ENE 6 9 1021.2 - 0.0 - - - - - - -
23/10:30pm 19.7 ENE 7 11 1021.0 - 0.0 - - - - - - -
23/10:00pm 19.8 ENE 8 11 1020.8 - 0.0 - - - - - - -
23/09:30pm 19.8 ENE 7 10 1020.9 - 0.0 - - - - - - -
23/09:00pm 19.9 ENE 9 11 1020.8 - 0.0 - - - - - - -
23/08:30pm 20.2 E 8 12 1020.5 - 0.0 - - - - - - -
23/08:00pm 20.2 ENE 9 13 1020.1 - 0.0 - - - - - - -
23/07:30pm 20.0 ENE 7 10 1020.0 - 0.0 - - - - - - -
23/07:00pm 20.4 ENE 9 14 1019.5 - 0.0 - - - - - - -
23/06:30pm 20.6 ENE 10 13 1019.1 - 0.0 - - - - - - -
23/06:00pm 21.0 ENE 9 15 1018.7 - 0.0 - - - - - - -
23/05:30pm 21.6 ENE 14 19 1018.3 - 0.0 - - - - - - -
23/05:00pm 22.1 ENE 13 19 1018.2 - 0.0 - - - - - - -
23/04:30pm 23.0 ENE 12 19 1017.8 - 0.0 - - - - - - -
23/04:00pm 23.6 ENE 12 18 1017.5 - 0.0 - - - - - - -
23/03:30pm 24.2 ENE 14 20 1017.5 - 0.0 - - - - - - -
23/03:00pm 24.7 ENE 13 18 1017.6 - 0.0 - - - - - - -
23/02:30pm 25.9 ENE 12 18 1017.8 - 0.0 - - - - - - -
23/02:00pm 25.8 ENE 12 17 1018.3 - 0.0 - - - - - - -
23/01:30pm 26.3 ENE 13 18 1018.6 - 0.0 - - - - - - -
23/01:00pm 27.3 ENE 11 17 1018.7 - 0.0 - - - - - - -
23/12:30pm 27.2 ENE 12 16 1019.0 - 0.0 - - - - - - -
23/12:00pm 27.2 NE 11 15 1019.2 - 0.0 - - - - - - -
23/11:30am 27.1 ENE 11 15 1019.9 - 0.0 - - - - - - -
23/11:00am 27.2 ENE 11 16 1020.3 - 0.0 - - - - - - -
23/10:30am 27.3 ENE 10 15 1020.7 - 0.0 - - - - - - -
23/10:00am 26.2 E 9 15 1021.1 - 0.0 - - - - - - -
23/09:30am 25.0 SE 7 9 1021.4 - 0.0 - - - - - - -
23/09:00am 24.2 E 10 15 1021.5 - 0.0 - - - - - - -
23/08:30am 23.3 ESE 9 14 1021.7 - 0.0 - - - - - - -
23/08:00am 22.8 ESE 8 13 1021.7 - 0.0 - - - - - - -
23/07:30am 21.9 ESE 9 14 1021.5 - 0.0 - - - - - - -
23/07:00am 20.9 SE 8 12 1021.3 - 0.0 - - - - - - -
23/06:30am 19.1 SSE 6 13 1021.1 - 0.0 - - - - - - -
23/06:00am 17.4 S 7 10 1021.1 - 0.0 - - - - - - -
23/05:30am 17.2 SSE 7 11 1021.0 - 0.0 - - - - - - -
23/05:00am 17.1 S 8 11 1020.7 - 0.0 - - - - - - -
23/04:30am 17.4 SSE 8 13 1020.5 - 0.0 - - - - - - -
23/04:00am 17.4 SSE 9 13 1020.4 - 0.0 - - - - - - -
23/03:30am 17.5 SSE 8 12 1020.2 - 0.0 - - - - - - -

Other Formats:

Comma delimited format used in spreadsheet applications
http://www.bom.gov.au/fwo/IDQ60701/IDQ60701.94380.axf

JavaScript Object Notation format (JSON) in row-major order
http://www.bom.gov.au/fwo/IDQ60701/IDQ60701.94380.json